Terminal Aerodrome Forecast
Issued by NWS

Home | Current Version | Previous Version | Text Only | Print | Product List | Glossary On
Versions: 1 2 3 4 5 6 7 8 9 10 11 12 13 14 15 16 17 18 19 20 21 22 23 24
000
FTUS41 KOKX 141100
TAFHPN
TAF
KHPN 141130Z 1412/1512 VRB04KT P6SM SCT015 BKN040 BKN070
     FM141700 17007KT P6SM VCSH BKN040
      TEMPO 1418/1421 4SM TSRA BKN040CB
     FM142100 18008KT 3SM SHRA SCT025 BKN050
      TEMPO 1422/1502 3SM TSRA BKN050CB
     FM150300 18005KT 2SM BR VCSH SCT007 SCT015 BKN030
      AMD NOT SKED=

USA.gov is the U.S. government's official web portal to all federal, state and local government web resources and services.